sensor_id;sensor_type;location;lat;lon;timestamp;temperature;humidity
67182;DHT22;54114;53.524;49.396;2023-03-23T00:00:47;3.70;67.10
67182;DHT22;54114;53.524;49.396;2023-03-23T00:03:16;3.60;67.10
67182;DHT22;54114;53.524;49.396;2023-03-23T00:05:45;3.60;67.30
67182;DHT22;54114;53.524;49.396;2023-03-23T00:08:24;3.60;67.20
67182;DHT22;54114;53.524;49.396;2023-03-23T00:10:52;3.60;67.20
67182;DHT22;54114;53.524;49.396;2023-03-23T00:13:31;3.60;67.10
67182;DHT22;54114;53.524;49.396;2023-03-23T00:16:02;3.50;67.10
67182;DHT22;54114;53.524;49.396;2023-03-23T00:18:32;3.50;67.40
67182;DHT22;54114;53.524;49.396;2023-03-23T00:21:03;3.40;67.30
67182;DHT22;54114;53.524;49.396;2023-03-23T00:23:35;3.40;67.40
67182;DHT22;54114;53.524;49.396;2023-03-23T00:26:01;3.30;67.60
67182;DHT22;54114;53.524;49.396;2023-03-23T00:28:33;3.30;67.70
67182;DHT22;54114;53.524;49.396;2023-03-23T00:31:09;3.20;67.90
67182;DHT22;54114;53.524;49.396;2023-03-23T00:33:43;3.20;67.90
67182;DHT22;54114;53.524;49.396;2023-03-23T00:36:14;3.20;68.00
67182;DHT22;54114;53.524;49.396;2023-03-23T00:38:51;3.10;68.10
67182;DHT22;54114;53.524;49.396;2023-03-23T00:41:18;3.10;68.30
67182;DHT22;54114;53.524;49.396;2023-03-23T00:43:50;3.00;68.90
67182;DHT22;54114;53.524;49.396;2023-03-23T00:46:17;3.00;68.70
67182;DHT22;54114;53.524;49.396;2023-03-23T00:48:46;3.00;68.80
67182;DHT22;54114;53.524;49.396;2023-03-23T00:51:20;2.90;68.80
67182;DHT22;54114;53.524;49.396;2023-03-23T00:53:47;2.80;68.90
67182;DHT22;54114;53.524;49.396;2023-03-23T00:56:16;2.80;69.90
67182;DHT22;54114;53.524;49.396;2023-03-23T00:58:45;2.80;69.30
67182;DHT22;54114;53.524;49.396;2023-03-23T01:01:12;2.80;69.20
67182;DHT22;54114;53.524;49.396;2023-03-23T01:03:42;2.70;69.40
67182;DHT22;54114;53.524;49.396;2023-03-23T01:06:11;2.70;70.00
67182;DHT22;54114;53.524;49.396;2023-03-23T01:08:41;2.70;69.70
67182;DHT22;54114;53.524;49.396;2023-03-23T01:11:13;2.60;69.70
67182;DHT22;54114;53.524;49.396;2023-03-23T01:13:48;2.60;69.50
67182;DHT22;54114;53.524;49.396;2023-03-23T01:16:17;2.60;69.50
67182;DHT22;54114;53.524;49.396;2023-03-23T01:18:44;2.50;69.50
67182;DHT22;54114;53.524;49.396;2023-03-23T01:21:15;2.50;69.60
67182;DHT22;54114;53.524;49.396;2023-03-23T01:23:50;2.50;69.60
67182;DHT22;54114;53.524;49.396;2023-03-23T01:26:25;2.50;69.60
67182;DHT22;54114;53.524;49.396;2023-03-23T01:29:01;2.40;69.60
67182;DHT22;54114;53.524;49.396;2023-03-23T01:31:31;2.40;69.80
67182;DHT22;54114;53.524;49.396;2023-03-23T01:34:07;2.40;70.00
67182;DHT22;54114;53.524;49.396;2023-03-23T01:36:38;2.30;69.90
67182;DHT22;54114;53.524;49.396;2023-03-23T01:39:08;2.30;69.90
67182;DHT22;54114;53.524;49.396;2023-03-23T01:41:37;2.30;70.00
67182;DHT22;54114;53.524;49.396;2023-03-23T01:46:52;2.30;70.20
67182;DHT22;54114;53.524;49.396;2023-03-23T01:49:30;2.20;70.20
67182;DHT22;54114;53.524;49.396;2023-03-23T01:52:07;2.20;70.30
67182;DHT22;54114;53.524;49.396;2023-03-23T01:54:37;2.30;70.30
67182;DHT22;54114;53.524;49.396;2023-03-23T01:57:07;2.30;70.30
67182;DHT22;54114;53.524;49.396;2023-03-23T01:59:40;2.20;70.40
67182;DHT22;54114;53.524;49.396;2023-03-23T02:02:15;2.20;70.40
67182;DHT22;54114;53.524;49.396;2023-03-23T02:04:45;2.20;70.60
67182;DHT22;54114;53.524;49.396;2023-03-23T02:07:20;2.20;70.60
67182;DHT22;54114;53.524;49.396;2023-03-23T02:09:52;2.20;70.60
67182;DHT22;54114;53.524;49.396;2023-03-23T02:12:22;2.20;70.60
67182;DHT22;54114;53.524;49.396;2023-03-23T02:14:51;2.20;70.90
67182;DHT22;54114;53.524;49.396;2023-03-23T02:17:31;2.20;71.00
67182;DHT22;54114;53.524;49.396;2023-03-23T02:31:53;2.30;71.30
67182;DHT22;54114;53.524;49.396;2023-03-23T02:34:55;2.30;71.40
67182;DHT22;54114;53.524;49.396;2023-03-23T02:37:46;2.40;71.40
67182;DHT22;54114;53.524;49.396;2023-03-23T02:40:28;2.40;71.50
67182;DHT22;54114;53.524;49.396;2023-03-23T02:43:02;2.50;71.60
67182;DHT22;54114;53.524;49.396;2023-03-23T02:45:36;2.50;71.50
67182;DHT22;54114;53.524;49.396;2023-03-23T02:48:10;2.60;71.50
67182;DHT22;54114;53.524;49.396;2023-03-23T02:50:45;2.60;71.60
67182;DHT22;54114;53.524;49.396;2023-03-23T02:53:25;2.70;71.70
67182;DHT22;54114;53.524;49.396;2023-03-23T02:55:57;2.80;71.40
67182;DHT22;54114;53.524;49.396;2023-03-23T02:58:29;2.90;71.50
67182;DHT22;54114;53.524;49.396;2023-03-23T03:01:10;2.90;71.70
67182;DHT22;54114;53.524;49.396;2023-03-23T03:04:23;3.00;72.20
67182;DHT22;54114;53.524;49.396;2023-03-23T03:09:50;3.20;71.60
67182;DHT22;54114;53.524;49.396;2023-03-23T03:12:36;3.20;71.80
67182;DHT22;54114;53.524;49.396;2023-03-23T03:15:27;3.30;71.90
67182;DHT22;54114;53.524;49.396;2023-03-23T03:18:06;3.40;71.90
67182;DHT22;54114;53.524;49.396;2023-03-23T03:20:43;3.50;71.90
67182;DHT22;54114;53.524;49.396;2023-03-23T03:23:13;3.50;71.90
67182;DHT22;54114;53.524;49.396;2023-03-23T03:25:40;3.60;71.80
67182;DHT22;54114;53.524;49.396;2023-03-23T03:28:19;3.70;72.10
67182;DHT22;54114;53.524;49.396;2023-03-23T03:30:58;3.90;72.00
67182;DHT22;54114;53.524;49.396;2023-03-23T03:33:31;4.00;72.10
67182;DHT22;54114;53.524;49.396;2023-03-23T03:36:02;4.10;72.60
67182;DHT22;54114;53.524;49.396;2023-03-23T03:38:41;4.20;72.50
67182;DHT22;54114;53.524;49.396;2023-03-23T03:41:09;4.30;72.60
67182;DHT22;54114;53.524;49.396;2023-03-23T03:43:36;4.40;72.50
67182;DHT22;54114;53.524;49.396;2023-03-23T03:46:03;4.60;73.20
67182;DHT22;54114;53.524;49.396;2023-03-23T03:48:30;4.70;72.50
67182;DHT22;54114;53.524;49.396;2023-03-23T03:50:56;4.80;72.40
67182;DHT22;54114;53.524;49.396;2023-03-23T03:53:23;4.90;72.30
67182;DHT22;54114;53.524;49.396;2023-03-23T03:55:51;5.00;72.00
67182;DHT22;54114;53.524;49.396;2023-03-23T03:58:22;5.10;72.60
67182;DHT22;54114;53.524;49.396;2023-03-23T04:00:49;5.20;73.10
67182;DHT22;54114;53.524;49.396;2023-03-23T04:03:18;5.40;73.70
67182;DHT22;54114;53.524;49.396;2023-03-23T04:05:45;5.40;74.10
67182;DHT22;54114;53.524;49.396;2023-03-23T04:08:12;5.50;74.50
67182;DHT22;54114;53.524;49.396;2023-03-23T04:10:39;5.60;74.70
67182;DHT22;54114;53.524;49.396;2023-03-23T04:13:06;5.70;75.00
67182;DHT22;54114;53.524;49.396;2023-03-23T04:15:33;5.80;75.40
67182;DHT22;54114;53.524;49.396;2023-03-23T04:18:02;5.90;75.50
67182;DHT22;54114;53.524;49.396;2023-03-23T04:20:29;6.00;75.20
67182;DHT22;54114;53.524;49.396;2023-03-23T04:22:56;6.10;75.40
67182;DHT22;54114;53.524;49.396;2023-03-23T04:25:22;6.20;75.60
67182;DHT22;54114;53.524;49.396;2023-03-23T04:27:50;6.20;75.60
67182;DHT22;54114;53.524;49.396;2023-03-23T04:30:22;6.30;75.50
67182;DHT22;54114;53.524;49.396;2023-03-23T04:32:51;6.50;75.60
67182;DHT22;54114;53.524;49.396;2023-03-23T04:35:23;6.60;75.30
67182;DHT22;54114;53.524;49.396;2023-03-23T04:37:57;6.70;75.00
67182;DHT22;54114;53.524;49.396;2023-03-23T04:40:26;6.80;74.70
67182;DHT22;54114;53.524;49.396;2023-03-23T04:42:53;6.90;74.30
67182;DHT22;54114;53.524;49.396;2023-03-23T04:45:24;7.00;74.00
67182;DHT22;54114;53.524;49.396;2023-03-23T04:47:52;7.10;73.50
67182;DHT22;54114;53.524;49.396;2023-03-23T04:50:23;7.10;73.20
67182;DHT22;54114;53.524;49.396;2023-03-23T04:52:52;7.20;72.90
67182;DHT22;54114;53.524;49.396;2023-03-23T04:55:22;7.30;72.60
67182;DHT22;54114;53.524;49.396;2023-03-23T04:57:53;7.40;72.50
67182;DHT22;54114;53.524;49.396;2023-03-23T05:00:20;7.50;72.20
67182;DHT22;54114;53.524;49.396;2023-03-23T05:02:47;7.60;72.00
67182;DHT22;54114;53.524;49.396;2023-03-23T05:05:19;7.70;71.50
67182;DHT22;54114;53.524;49.396;2023-03-23T05:07:46;7.80;71.20
67182;DHT22;54114;53.524;49.396;2023-03-23T05:10:14;7.80;70.70
67182;DHT22;54114;53.524;49.396;2023-03-23T05:12:42;7.90;70.50
67182;DHT22;54114;53.524;49.396;2023-03-23T05:15:11;8.00;70.20
67182;DHT22;54114;53.524;49.396;2023-03-23T05:17:41;8.10;69.80
67182;DHT22;54114;53.524;49.396;2023-03-23T05:20:13;8.20;69.40
67182;DHT22;54114;53.524;49.396;2023-03-23T05:22:43;8.30;69.00
67182;DHT22;54114;53.524;49.396;2023-03-23T05:25:18;8.40;68.60
67182;DHT22;54114;53.524;49.396;2023-03-23T05:27:46;8.50;68.40
67182;DHT22;54114;53.524;49.396;2023-03-23T05:30:20;8.50;67.90
67182;DHT22;54114;53.524;49.396;2023-03-23T05:32:48;8.60;67.60
67182;DHT22;54114;53.524;49.396;2023-03-23T05:35:19;8.70;67.30
67182;DHT22;54114;53.524;49.396;2023-03-23T05:37:46;8.80;66.90
67182;DHT22;54114;53.524;49.396;2023-03-23T05:40:13;8.80;66.60
67182;DHT22;54114;53.524;49.396;2023-03-23T05:42:43;8.90;66.30
67182;DHT22;54114;53.524;49.396;2023-03-23T05:45:11;9.00;66.20
67182;DHT22;54114;53.524;49.396;2023-03-23T05:47:39;9.10;65.80
67182;DHT22;54114;53.524;49.396;2023-03-23T05:50:07;9.20;65.30
67182;DHT22;54114;53.524;49.396;2023-03-23T05:52:39;9.30;65.00
67182;DHT22;54114;53.524;49.396;2023-03-23T05:55:09;9.40;64.80
67182;DHT22;54114;53.524;49.396;2023-03-23T05:57:39;9.60;64.50
67182;DHT22;54114;53.524;49.396;2023-03-23T06:00:11;9.70;63.90
67182;DHT22;54114;53.524;49.396;2023-03-23T06:02:41;9.80;63.60
67182;DHT22;54114;53.524;49.396;2023-03-23T06:05:15;9.90;63.10
67182;DHT22;54114;53.524;49.396;2023-03-23T06:07:45;10.00;62.90
67182;DHT22;54114;53.524;49.396;2023-03-23T06:10:14;10.10;62.60
67182;DHT22;54114;53.524;49.396;2023-03-23T06:12:49;10.20;62.20
67182;DHT22;54114;53.524;49.396;2023-03-23T06:15:19;10.30;62.00
67182;DHT22;54114;53.524;49.396;2023-03-23T06:17:57;10.40;61.60
67182;DHT22;54114;53.524;49.396;2023-03-23T06:20:30;10.50;61.10
67182;DHT22;54114;53.524;49.396;2023-03-23T06:23:01;10.60;60.80
67182;DHT22;54114;53.524;49.396;2023-03-23T06:25:29;10.70;60.50
67182;DHT22;54114;53.524;49.396;2023-03-23T06:28:02;10.80;60.20
67182;DHT22;54114;53.524;49.396;2023-03-23T06:30:36;11.00;59.80
67182;DHT22;54114;53.524;49.396;2023-03-23T06:33:05;11.10;59.30
67182;DHT22;54114;53.524;49.396;2023-03-23T06:35:41;11.30;59.00
67182;DHT22;54114;53.524;49.396;2023-03-23T06:38:11;11.50;58.50
67182;DHT22;54114;53.524;49.396;2023-03-23T06:40:43;11.80;58.10
67182;DHT22;54114;53.524;49.396;2023-03-23T06:43:17;12.30;57.40
67182;DHT22;54114;53.524;49.396;2023-03-23T06:45:46;13.20;55.60
67182;DHT22;54114;53.524;49.396;2023-03-23T06:48:15;13.90;54.00
67182;DHT22;54114;53.524;49.396;2023-03-23T06:50:46;14.50;52.20
67182;DHT22;54114;53.524;49.396;2023-03-23T06:53:19;14.90;50.80
67182;DHT22;54114;53.524;49.396;2023-03-23T06:55:51;15.30;49.40
67182;DHT22;54114;53.524;49.396;2023-03-23T06:58:17;15.70;47.90
67182;DHT22;54114;53.524;49.396;2023-03-23T07:00:47;16.10;47.30
67182;DHT22;54114;53.524;49.396;2023-03-23T07:03:13;16.60;46.00
67182;DHT22;54114;53.524;49.396;2023-03-23T07:05:40;16.90;44.80
67182;DHT22;54114;53.524;49.396;2023-03-23T07:08:14;17.10;43.10
67182;DHT22;54114;53.524;49.396;2023-03-23T07:10:47;17.30;42.10
67182;DHT22;54114;53.524;49.396;2023-03-23T07:13:18;17.50;41.50
67182;DHT22;54114;53.524;49.396;2023-03-23T07:15:47;17.80;41.30
67182;DHT22;54114;53.524;49.396;2023-03-23T07:18:14;17.90;40.70
67182;DHT22;54114;53.524;49.396;2023-03-23T07:20:41;17.80;39.60
67182;DHT22;54114;53.524;49.396;2023-03-23T07:23:11;17.90;39.10
67182;DHT22;54114;53.524;49.396;2023-03-23T07:25:38;17.90;38.50
67182;DHT22;54114;53.524;49.396;2023-03-23T07:28:07;17.80;38.30
67182;DHT22;54114;53.524;49.396;2023-03-23T07:30:34;17.60;38.20
67182;DHT22;54114;53.524;49.396;2023-03-23T07:33:05;17.60;38.60
67182;DHT22;54114;53.524;49.396;2023-03-23T07:35:32;17.80;37.80
67182;DHT22;54114;53.524;49.396;2023-03-23T07:38:00;18.00;37.70
67182;DHT22;54114;53.524;49.396;2023-03-23T07:40:30;18.30;37.40
67182;DHT22;54114;53.524;49.396;2023-03-23T07:43:03;18.50;37.20
67182;DHT22;54114;53.524;49.396;2023-03-23T07:45:35;18.60;36.50
67182;DHT22;54114;53.524;49.396;2023-03-23T07:48:02;18.60;36.30
67182;DHT22;54114;53.524;49.396;2023-03-23T07:50:28;18.60;36.50
67182;DHT22;54114;53.524;49.396;2023-03-23T07:52:56;18.70;35.40
67182;DHT22;54114;53.524;49.396;2023-03-23T07:55:24;19.00;35.20
67182;DHT22;54114;53.524;49.396;2023-03-23T07:57:53;19.10;34.60
67182;DHT22;54114;53.524;49.396;2023-03-23T08:00:21;19.10;34.40
67182;DHT22;54114;53.524;49.396;2023-03-23T08:02:52;19.20;34.10
67182;DHT22;54114;53.524;49.396;2023-03-23T08:05:21;19.20;33.70
67182;DHT22;54114;53.524;49.396;2023-03-23T08:07:52;19.30;33.50
67182;DHT22;54114;53.524;49.396;2023-03-23T08:10:21;19.30;33.40
67182;DHT22;54114;53.524;49.396;2023-03-23T08:12:52;19.30;33.50
67182;DHT22;54114;53.524;49.396;2023-03-23T08:15:26;19.10;33.30
67182;DHT22;54114;53.524;49.396;2023-03-23T08:17:55;18.90;33.50
67182;DHT22;54114;53.524;49.396;2023-03-23T08:20:22;18.80;33.80
67182;DHT22;54114;53.524;49.396;2023-03-23T08:22:53;18.70;34.00
67182;DHT22;54114;53.524;49.396;2023-03-23T08:25:24;18.60;33.90
67182;DHT22;54114;53.524;49.396;2023-03-23T08:27:52;18.70;33.90
67182;DHT22;54114;53.524;49.396;2023-03-23T08:30:24;18.60;33.70
67182;DHT22;54114;53.524;49.396;2023-03-23T08:32:57;18.80;33.40
67182;DHT22;54114;53.524;49.396;2023-03-23T08:35:33;18.90;33.40
67182;DHT22;54114;53.524;49.396;2023-03-23T08:38:08;18.70;33.70
67182;DHT22;54114;53.524;49.396;2023-03-23T08:40:37;18.40;33.90
67182;DHT22;54114;53.524;49.396;2023-03-23T08:43:09;18.00;34.50
67182;DHT22;54114;53.524;49.396;2023-03-23T08:45:43;17.60;35.20
67182;DHT22;54114;53.524;49.396;2023-03-23T08:48:13;17.20;36.00
67182;DHT22;54114;53.524;49.396;2023-03-23T08:50:42;17.00;36.50
67182;DHT22;54114;53.524;49.396;2023-03-23T08:53:11;16.80;36.80
67182;DHT22;54114;53.524;49.396;2023-03-23T08:55:41;16.60;37.00
67182;DHT22;54114;53.524;49.396;2023-03-23T08:58:08;16.40;37.20
67182;DHT22;54114;53.524;49.396;2023-03-23T09:00:38;16.40;37.50
67182;DHT22;54114;53.524;49.396;2023-03-23T09:03:08;16.30;37.40
67182;DHT22;54114;53.524;49.396;2023-03-23T09:05:35;16.30;37.60
67182;DHT22;54114;53.524;49.396;2023-03-23T09:08:11;16.30;37.50
67182;DHT22;54114;53.524;49.396;2023-03-23T09:10:43;16.20;37.40
67182;DHT22;54114;53.524;49.396;2023-03-23T09:13:16;16.10;37.70
67182;DHT22;54114;53.524;49.396;2023-03-23T09:15:43;16.00;38.00
67182;DHT22;54114;53.524;49.396;2023-03-23T09:18:13;16.10;38.10
67182;DHT22;54114;53.524;49.396;2023-03-23T09:20:42;16.30;37.70
67182;DHT22;54114;53.524;49.396;2023-03-23T09:23:09;16.40;37.50
67182;DHT22;54114;53.524;49.396;2023-03-23T09:25:36;16.50;37.40
67182;DHT22;54114;53.524;49.396;2023-03-23T09:28:05;16.80;37.20
67182;DHT22;54114;53.524;49.396;2023-03-23T09:30:36;16.80;37.20
67182;DHT22;54114;53.524;49.396;2023-03-23T09:33:05;17.00;37.30
67182;DHT22;54114;53.524;49.396;2023-03-23T09:35:35;17.20;36.90
67182;DHT22;54114;53.524;49.396;2023-03-23T09:38:09;17.30;36.70
67182;DHT22;54114;53.524;49.396;2023-03-23T09:40:53;17.30;36.10
67182;DHT22;54114;53.524;49.396;2023-03-23T09:47:00;17.70;36.10
67182;DHT22;54114;53.524;49.396;2023-03-23T09:52:18;18.20;35.50
67182;DHT22;54114;53.524;49.396;2023-03-23T09:54:50;18.40;34.90
67182;DHT22;54114;53.524;49.396;2023-03-23T10:00:29;18.70;34.40
67182;DHT22;54114;53.524;49.396;2023-03-23T10:03:15;18.90;34.20
67182;DHT22;54114;53.524;49.396;2023-03-23T10:05:49;18.80;33.80
67182;DHT22;54114;53.524;49.396;2023-03-23T10:08:23;18.50;33.80
67182;DHT22;54114;53.524;49.396;2023-03-23T10:11:10;18.20;34.20
67182;DHT22;54114;53.524;49.396;2023-03-23T10:14:09;17.90;34.40
67182;DHT22;54114;53.524;49.396;2023-03-23T10:20:00;17.50;35.70
67182;DHT22;54114;53.524;49.396;2023-03-23T10:23:05;17.50;36.00
67182;DHT22;54114;53.524;49.396;2023-03-23T10:25:37;17.50;36.10
67182;DHT22;54114;53.524;49.396;2023-03-23T10:28:17;17.60;36.20
67182;DHT22;54114;53.524;49.396;2023-03-23T10:30:53;17.60;36.20
67182;DHT22;54114;53.524;49.396;2023-03-23T10:33:29;17.60;36.10
67182;DHT22;54114;53.524;49.396;2023-03-23T10:36:21;17.60;36.10
67182;DHT22;54114;53.524;49.396;2023-03-23T10:38:58;17.70;35.70
67182;DHT22;54114;53.524;49.396;2023-03-23T10:41:30;17.70;35.40
67182;DHT22;54114;53.524;49.396;2023-03-23T10:43:57;17.70;35.30
67182;DHT22;54114;53.524;49.396;2023-03-23T10:49:19;18.20;35.30
67182;DHT22;54114;53.524;49.396;2023-03-23T10:54:37;18.70;34.80
67182;DHT22;54114;53.524;49.396;2023-03-23T10:57:34;19.10;34.30
67182;DHT22;54114;53.524;49.396;2023-03-23T11:00:16;19.40;34.30
67182;DHT22;54114;53.524;49.396;2023-03-23T11:02:57;19.70;34.20
67182;DHT22;54114;53.524;49.396;2023-03-23T11:05:58;20.00;33.80
67182;DHT22;54114;53.524;49.396;2023-03-23T11:08:33;20.10;33.90
67182;DHT22;54114;53.524;49.396;2023-03-23T11:11:11;20.30;33.90
67182;DHT22;54114;53.524;49.396;2023-03-23T11:13:46;20.80;33.60
67182;DHT22;54114;53.524;49.396;2023-03-23T11:16:32;21.20;33.20
67182;DHT22;54114;53.524;49.396;2023-03-23T11:19:21;21.60;32.80
67182;DHT22;54114;53.524;49.396;2023-03-23T11:22:04;21.70;32.50
67182;DHT22;54114;53.524;49.396;2023-03-23T11:24:42;21.80;32.00
67182;DHT22;54114;53.524;49.396;2023-03-23T11:27:15;21.80;32.30
67182;DHT22;54114;53.524;49.396;2023-03-23T11:30:18;22.10;32.00
67182;DHT22;54114;53.524;49.396;2023-03-23T11:32:50;22.30;31.60
67182;DHT22;54114;53.524;49.396;2023-03-23T11:35:25;22.30;31.60
67182;DHT22;54114;53.524;49.396;2023-03-23T11:37:55;22.40;31.40
67182;DHT22;54114;53.524;49.396;2023-03-23T11:40:31;22.50;31.40
67182;DHT22;54114;53.524;49.396;2023-03-23T11:43:13;22.40;30.90
67182;DHT22;54114;53.524;49.396;2023-03-23T11:45:50;22.00;31.10
67182;DHT22;54114;53.524;49.396;2023-03-23T11:56:55;21.40;31.70
67182;DHT22;54114;53.524;49.396;2023-03-23T11:59:33;21.20;32.20
67182;DHT22;54114;53.524;49.396;2023-03-23T12:05:27;21.10;32.40
67182;DHT22;54114;53.524;49.396;2023-03-23T12:11:31;21.00;32.10
67182;DHT22;54114;53.524;49.396;2023-03-23T12:13:50;20.90;32.60
67182;DHT22;54114;53.524;49.396;2023-03-23T12:16:37;20.90;32.60
67182;DHT22;54114;53.524;49.396;2023-03-23T12:19:41;20.90;32.90
67182;DHT22;54114;53.524;49.396;2023-03-23T12:22:39;20.90;32.70
67182;DHT22;54114;53.524;49.396;2023-03-23T12:38:53;20.20;34.30
67182;DHT22;54114;53.524;49.396;2023-03-23T12:41:49;20.00;34.60
67182;DHT22;54114;53.524;49.396;2023-03-23T12:47:46;19.40;35.60
67182;DHT22;54114;53.524;49.396;2023-03-23T12:50:18;19.30;35.90
67182;DHT22;54114;53.524;49.396;2023-03-23T12:55:48;19.10;36.50
67182;DHT22;54114;53.524;49.396;2023-03-23T12:58:37;18.90;36.70
67182;DHT22;54114;53.524;49.396;2023-03-23T13:01:32;18.60;37.10
67182;DHT22;54114;53.524;49.396;2023-03-23T13:04:11;18.50;37.50
67182;DHT22;54114;53.524;49.396;2023-03-23T13:06:44;18.30;37.80
67182;DHT22;54114;53.524;49.396;2023-03-23T13:12:03;17.80;38.50
67182;DHT22;54114;53.524;49.396;2023-03-23T13:14:59;17.50;38.90
67182;DHT22;54114;53.524;49.396;2023-03-23T13:17:53;17.20;39.50
67182;DHT22;54114;53.524;49.396;2023-03-23T13:21:08;17.10;40.00
67182;DHT22;54114;53.524;49.396;2023-03-23T13:23:46;16.90;40.30
67182;DHT22;54114;53.524;49.396;2023-03-23T13:26:21;16.70;40.60
67182;DHT22;54114;53.524;49.396;2023-03-23T13:28:55;16.60;41.00
67182;DHT22;54114;53.524;49.396;2023-03-23T13:31:29;16.40;41.00
67182;DHT22;54114;53.524;49.396;2023-03-23T13:34:06;16.20;41.70
67182;DHT22;54114;53.524;49.396;2023-03-23T13:36:41;16.20;42.10
67182;DHT22;54114;53.524;49.396;2023-03-23T13:39:21;16.10;42.20
67182;DHT22;54114;53.524;49.396;2023-03-23T13:49:58;16.30;42.50
67182;DHT22;54114;53.524;49.396;2023-03-23T13:57:54;16.40;42.30
67182;DHT22;54114;53.524;49.396;2023-03-23T14:10:58;16.30;42.70
67182;DHT22;54114;53.524;49.396;2023-03-23T14:13:32;16.30;42.70
67182;DHT22;54114;53.524;49.396;2023-03-23T14:16:03;16.40;42.70
67182;DHT22;54114;53.524;49.396;2023-03-23T14:18:36;16.40;42.70
67182;DHT22;54114;53.524;49.396;2023-03-23T14:21:06;16.30;42.80
67182;DHT22;54114;53.524;49.396;2023-03-23T14:23:41;16.20;42.90
67182;DHT22;54114;53.524;49.396;2023-03-23T14:26:15;16.10;43.10
67182;DHT22;54114;53.524;49.396;2023-03-23T14:28:49;16.00;43.20
67182;DHT22;54114;53.524;49.396;2023-03-23T14:31:25;15.90;43.40
67182;DHT22;54114;53.524;49.396;2023-03-23T14:33:55;15.80;43.60
67182;DHT22;54114;53.524;49.396;2023-03-23T14:36:33;15.60;43.80
67182;DHT22;54114;53.524;49.396;2023-03-23T14:39:28;15.60;44.20
67182;DHT22;54114;53.524;49.396;2023-03-23T14:42:05;15.50;44.20
67182;DHT22;54114;53.524;49.396;2023-03-23T14:44:50;15.40;44.40
67182;DHT22;54114;53.524;49.396;2023-03-23T14:49:59;15.10;44.80
67182;DHT22;54114;53.524;49.396;2023-03-23T14:52:29;15.10;45.00
67182;DHT22;54114;53.524;49.396;2023-03-23T14:55:21;14.90;45.10
67182;DHT22;54114;53.524;49.396;2023-03-23T14:57:51;14.90;45.40
67182;DHT22;54114;53.524;49.396;2023-03-23T15:00:25;14.70;45.50
67182;DHT22;54114;53.524;49.396;2023-03-23T15:02:56;14.70;45.70
67182;DHT22;54114;53.524;49.396;2023-03-23T15:05:31;14.60;45.60
67182;DHT22;54114;53.524;49.396;2023-03-23T15:08:11;14.50;45.90
67182;DHT22;54114;53.524;49.396;2023-03-23T15:11:38;14.50;46.10
67182;DHT22;54114;53.524;49.396;2023-03-23T15:14:20;14.40;46.20
67182;DHT22;54114;53.524;49.396;2023-03-23T15:16:53;14.30;46.50
67182;DHT22;54114;53.524;49.396;2023-03-23T15:19:35;14.10;46.70
67182;DHT22;54114;53.524;49.396;2023-03-23T15:22:14;14.10;47.00
67182;DHT22;54114;53.524;49.396;2023-03-23T15:24:47;13.90;47.10
67182;DHT22;54114;53.524;49.396;2023-03-23T15:27:28;13.90;47.30
67182;DHT22;54114;53.524;49.396;2023-03-23T15:29:57;13.70;47.50
67182;DHT22;54114;53.524;49.396;2023-03-23T15:32:29;13.70;47.70
67182;DHT22;54114;53.524;49.396;2023-03-23T15:34:57;13.50;47.90
67182;DHT22;54114;53.524;49.396;2023-03-23T15:37:31;13.40;48.00
67182;DHT22;54114;53.524;49.396;2023-03-23T15:40:00;13.40;48.30
67182;DHT22;54114;53.524;49.396;2023-03-23T15:42:33;13.30;48.50
67182;DHT22;54114;53.524;49.396;2023-03-23T15:52:56;12.80;49.40
67182;DHT22;54114;53.524;49.396;2023-03-23T15:55:26;12.70;49.60
67182;DHT22;54114;53.524;49.396;2023-03-23T15:57:56;12.60;49.90
67182;DHT22;54114;53.524;49.396;2023-03-23T16:00:27;12.50;50.10
67182;DHT22;54114;53.524;49.396;2023-03-23T16:03:05;12.50;50.40
67182;DHT22;54114;53.524;49.396;2023-03-23T16:05:36;12.40;50.60
67182;DHT22;54114;53.524;49.396;2023-03-23T16:08:03;12.30;50.70
67182;DHT22;54114;53.524;49.396;2023-03-23T16:10:30;12.20;51.00
67182;DHT22;54114;53.524;49.396;2023-03-23T16:12:57;12.10;51.30
67182;DHT22;54114;53.524;49.396;2023-03-23T16:15:26;12.00;51.40
67182;DHT22;54114;53.524;49.396;2023-03-23T16:17:58;12.00;51.70
67182;DHT22;54114;53.524;49.396;2023-03-23T16:20:27;11.90;51.90
67182;DHT22;54114;53.524;49.396;2023-03-23T16:22:54;11.80;52.00
67182;DHT22;54114;53.524;49.396;2023-03-23T16:25:26;11.80;52.20
67182;DHT22;54114;53.524;49.396;2023-03-23T16:27:52;11.70;52.40
67182;DHT22;54114;53.524;49.396;2023-03-23T16:30:31;11.70;52.60
67182;DHT22;54114;53.524;49.396;2023-03-23T16:33:03;11.60;52.80
67182;DHT22;54114;53.524;49.396;2023-03-23T16:35:33;11.60;53.10
67182;DHT22;54114;53.524;49.396;2023-03-23T16:38:01;11.50;53.20
67182;DHT22;54114;53.524;49.396;2023-03-23T16:40:28;11.50;53.60
67182;DHT22;54114;53.524;49.396;2023-03-23T16:42:55;11.50;53.70
67182;DHT22;54114;53.524;49.396;2023-03-23T16:45:22;11.50;53.90
67182;DHT22;54114;53.524;49.396;2023-03-23T16:47:49;11.40;54.10
67182;DHT22;54114;53.524;49.396;2023-03-23T16:50:17;11.50;54.20
67182;DHT22;54114;53.524;49.396;2023-03-23T16:52:47;11.40;54.30
67182;DHT22;54114;53.524;49.396;2023-03-23T16:55:15;11.50;54.50
67182;DHT22;54114;53.524;49.396;2023-03-23T16:57:45;11.40;54.50
67182;DHT22;54114;53.524;49.396;2023-03-23T17:00:16;11.40;54.50
67182;DHT22;54114;53.524;49.396;2023-03-23T17:02:49;11.40;54.70
67182;DHT22;54114;53.524;49.396;2023-03-23T17:05:20;11.40;54.80
67182;DHT22;54114;53.524;49.396;2023-03-23T17:07:54;11.30;54.90
67182;DHT22;54114;53.524;49.396;2023-03-23T17:10:25;11.30;54.90
67182;DHT22;54114;53.524;49.396;2023-03-23T17:12:57;11.20;55.20
67182;DHT22;54114;53.524;49.396;2023-03-23T17:15:29;11.20;55.30
67182;DHT22;54114;53.524;49.396;2023-03-23T17:17:55;11.20;55.40
67182;DHT22;54114;53.524;49.396;2023-03-23T17:20:22;11.20;55.40
67182;DHT22;54114;53.524;49.396;2023-03-23T17:22:49;11.20;55.40
67182;DHT22;54114;53.524;49.396;2023-03-23T17:25:16;11.10;55.50
67182;DHT22;54114;53.524;49.396;2023-03-23T17:27:43;11.10;55.60
67182;DHT22;54114;53.524;49.396;2023-03-23T17:30:13;11.10;55.70
67182;DHT22;54114;53.524;49.396;2023-03-23T17:32:42;11.10;55.80
67182;DHT22;54114;53.524;49.396;2023-03-23T17:35:12;11.00;55.80
67182;DHT22;54114;53.524;49.396;2023-03-23T17:37:41;11.00;55.90
67182;DHT22;54114;53.524;49.396;2023-03-23T17:40:11;11.00;55.90
67182;DHT22;54114;53.524;49.396;2023-03-23T17:42:40;11.00;56.00
67182;DHT22;54114;53.524;49.396;2023-03-23T17:45:08;11.00;56.10
67182;DHT22;54114;53.524;49.396;2023-03-23T17:47:35;10.90;56.00